createdAt,value
2018-02-22T11:40:49.076Z,6.45
2018-02-22T11:43:16.137Z,6.74
2018-02-22T11:45:41.998Z,7.19
2018-02-22T11:48:07.911Z,7.29
2018-02-22T11:50:33.776Z,7.60
2018-02-22T11:52:59.807Z,7.68
2018-02-22T11:55:25.740Z,7.47
2018-02-22T11:57:51.629Z,7.25
2018-02-22T12:00:17.480Z,6.81
2018-02-22T12:02:43.357Z,7.13
2018-02-22T12:05:09.453Z,7.07
2018-02-22T12:07:35.350Z,6.79
2018-02-22T12:10:01.340Z,6.50
2018-02-22T12:12:27.239Z,6.24
2018-02-22T12:14:53.126Z,5.97
2018-02-22T12:17:19.162Z,5.86
2018-02-22T12:19:45.036Z,5.45
2018-02-22T12:22:10.917Z,5.38
2018-02-22T12:24:37.230Z,5.29
2018-02-22T12:27:03.102Z,4.78
2018-02-22T12:29:29.084Z,4.70
2018-02-22T12:31:55.024Z,4.81
2018-02-22T12:34:20.895Z,5.07
2018-02-22T12:36:46.746Z,4.99
2018-02-22T12:39:12.710Z,4.96
2018-02-22T12:41:38.748Z,5.05
2018-02-22T12:44:04.701Z,4.57
2018-02-22T12:46:30.601Z,5.26
2018-02-22T12:48:56.464Z,5.85
2018-02-22T12:51:22.338Z,5.05
2018-02-22T12:53:48.414Z,5.52
2018-02-22T12:56:15.312Z,5.69
2018-02-22T12:58:41.171Z,5.83
2018-02-22T13:01:07.068Z,5.66
2018-02-22T13:03:32.946Z,5.80
2018-02-22T13:05:58.965Z,5.79
2018-02-22T13:08:24.888Z,6.17
2018-02-22T13:10:50.753Z,5.73
2018-02-22T13:13:16.613Z,5.57
2018-02-22T13:15:42.562Z,5.02
2018-02-22T13:18:08.570Z,4.76
2018-02-22T13:20:34.482Z,4.77
2018-02-22T13:23:00.393Z,4.75
2018-02-22T13:25:26.253Z,4.68
2018-02-22T13:27:52.116Z,4.53
2018-02-22T13:30:18.149Z,4.69
2018-02-22T13:32:56.330Z,4.80
2018-02-22T13:35:22.341Z,5.05
2018-02-22T13:40:53.157Z,4.85
2018-02-22T13:43:19.079Z,5.02
2018-02-22T13:45:44.941Z,4.68
2018-02-22T13:48:10.958Z,4.85
2018-02-22T13:50:49.189Z,4.66
2018-02-22T13:53:15.250Z,4.75
2018-02-22T13:55:41.108Z,4.61
2018-02-22T13:58:06.970Z,4.59
2018-02-22T14:00:45.154Z,4.57
2018-02-22T14:03:11.116Z,4.68
2018-02-22T14:05:37.109Z,4.73
2018-02-22T14:08:03.115Z,4.55
2018-02-22T14:10:28.976Z,4.61
2018-02-22T14:12:54.871Z,4.77
2018-02-22T14:15:20.806Z,4.40
2018-02-22T14:17:46.814Z,4.63
2018-02-22T14:20:12.676Z,4.60
2018-02-22T14:22:38.637Z,4.72
2018-02-22T14:25:04.505Z,4.54
2018-02-22T14:27:30.380Z,4.69
2018-02-22T14:29:56.427Z,4.74
2018-02-22T14:32:22.309Z,4.75
2018-02-22T14:34:48.206Z,4.64
2018-02-22T14:37:14.138Z,4.82
2018-02-22T14:39:39.997Z,4.81
2018-02-22T14:42:05.988Z,4.79
2018-02-22T14:44:31.910Z,4.41
2018-02-22T14:46:57.796Z,4.21
2018-02-22T14:49:23.666Z,4.22
2018-02-22T14:51:49.963Z,4.24
2018-02-22T14:54:16.004Z,4.09
2018-02-22T14:56:41.888Z,3.92
2018-02-22T14:59:07.867Z,3.78
2018-02-22T15:01:33.719Z,3.75
2018-02-22T15:03:59.585Z,3.72
2018-02-22T15:06:25.951Z,3.42
2018-02-22T15:08:51.826Z,3.33
2018-02-22T15:11:17.738Z,3.43
2018-02-22T15:13:43.692Z,3.43
2018-02-22T15:16:09.581Z,3.26
2018-02-22T15:18:35.596Z,3.17
2018-02-22T15:21:01.499Z,2.89
2018-02-22T15:23:27.362Z,2.87
2018-02-22T15:25:53.229Z,2.88
2018-02-22T15:28:19.438Z,2.75
2018-02-22T15:30:45.440Z,2.72
2018-02-22T15:33:11.300Z,2.64
2018-02-22T15:35:37.192Z,2.58
2018-02-22T15:38:03.071Z,2.59
2018-02-22T15:40:28.936Z,2.59
2018-02-22T15:42:54.994Z,2.60
2018-02-22T15:45:20.856Z,2.48
2018-02-22T15:47:47.646Z,2.58
2018-02-22T15:50:13.650Z,2.39
2018-02-22T15:52:39.536Z,2.41
2018-02-22T15:55:05.528Z,2.28
2018-02-22T15:57:31.438Z,2.26
2018-02-22T15:59:57.284Z,2.26
2018-02-22T16:02:23.154Z,2.22
2018-02-22T16:04:49.045Z,2.10
2018-02-22T16:07:15.112Z,2.21
2018-02-22T16:09:41.008Z,2.03
2018-02-22T16:12:06.900Z,2.01
2018-02-22T16:14:32.744Z,2.07
2018-02-22T16:16:58.584Z,2.01
2018-02-22T16:19:24.596Z,1.96
2018-02-22T16:21:50.457Z,1.71
2018-02-22T16:24:16.305Z,1.81
2018-02-22T16:26:42.243Z,1.72
2018-02-22T16:29:08.089Z,1.69
2018-02-22T16:31:34.083Z,1.62
2018-02-22T16:33:59.972Z,1.56
2018-02-22T16:36:25.912Z,1.56
2018-02-22T16:38:51.787Z,1.57
2018-02-22T16:41:17.716Z,1.59
2018-02-22T16:43:43.726Z,1.55
2018-02-22T16:46:09.580Z,1.55
2018-02-22T16:48:35.470Z,1.54
2018-02-22T16:51:01.338Z,1.43
2018-02-22T16:53:27.230Z,1.40
2018-02-22T16:55:53.335Z,1.43
2018-02-22T16:58:19.268Z,1.40
2018-02-22T17:00:45.156Z,1.37
2018-02-22T17:03:11.727Z,1.43
2018-02-22T17:05:37.639Z,1.37
2018-02-22T17:08:03.636Z,1.40
2018-02-22T17:10:29.563Z,1.52
2018-02-22T17:12:55.404Z,1.34
2018-02-22T17:15:21.320Z,1.28
2018-02-22T17:17:47.222Z,1.26
2018-02-22T17:20:13.215Z,1.18
2018-02-22T17:22:39.096Z,1.19
2018-02-22T17:25:05.032Z,1.14
2018-02-22T17:27:37.088Z,1.09
2018-02-22T17:30:09.140Z,1.10
2018-02-22T17:32:35.080Z,1.09
2018-02-22T17:35:00.958Z,0.93
2018-02-22T17:37:27.065Z,0.92
2018-02-22T17:40:02.926Z,0.87
2018-02-22T17:42:30.751Z,0.82
2018-02-22T17:44:56.775Z,0.83
2018-02-22T17:47:22.761Z,0.80
2018-02-22T17:49:48.697Z,0.74
2018-02-22T17:52:14.574Z,0.69
2018-02-22T17:54:42.378Z,0.70
2018-02-22T17:57:09.676Z,0.66
2018-02-22T17:59:36.176Z,0.66
2018-02-22T18:02:02.095Z,0.57
2018-02-22T18:04:28.648Z,0.55
2018-02-22T18:06:57.923Z,0.57
2018-02-22T18:09:23.958Z,0.57
2018-02-22T18:11:49.882Z,0.48
2018-02-22T18:14:15.782Z,0.47
2018-02-22T18:16:41.731Z,0.40
2018-02-22T18:19:07.685Z,0.39
2018-02-22T18:21:33.693Z,0.48
2018-02-22T18:23:59.540Z,0.42
2018-02-22T18:26:25.452Z,0.37
2018-02-22T18:28:51.334Z,0.29
2018-02-22T18:31:17.204Z,0.21
2018-02-22T18:33:43.278Z,0.25
2018-02-22T18:36:09.160Z,0.22
2018-02-22T18:38:41.134Z,0.19
2018-02-22T18:41:07.058Z,0.29
2018-02-22T18:43:39.288Z,0.29
2018-02-22T18:46:05.302Z,0.33
2018-02-22T18:48:31.395Z,0.31
2018-02-22T18:50:57.725Z,0.34
2018-02-22T18:53:23.612Z,0.27
2018-02-22T18:55:49.931Z,0.27
2018-02-22T18:58:16.417Z,0.28
2018-02-22T19:00:42.296Z,0.28
2018-02-22T19:03:08.197Z,0.34
2018-02-22T19:05:34.100Z,0.31
2018-02-22T19:07:59.948Z,0.35
2018-02-22T19:10:25.992Z,0.29
2018-02-22T19:12:51.840Z,0.28
2018-02-22T19:15:17.694Z,0.31
2018-02-22T19:17:43.622Z,0.28
2018-02-22T19:20:09.497Z,0.23
2018-02-22T19:22:35.533Z,0.16
2018-02-22T19:25:01.454Z,0.20
2018-02-22T19:27:27.325Z,0.08
2018-02-22T19:29:53.178Z,0.12
2018-02-22T19:32:19.093Z,0.07
2018-02-22T19:34:45.224Z,0.22
2018-02-22T19:37:11.097Z,0.25
2018-02-22T19:39:37.339Z,0.28
2018-02-22T19:42:03.202Z,0.22
2018-02-22T19:44:29.057Z,0.21
2018-02-22T19:46:55.122Z,0.17
2018-02-22T19:49:20.980Z,-0.01
2018-02-22T19:51:46.851Z,0.03
2018-02-22T19:54:12.750Z,0.07
2018-02-22T19:56:38.605Z,-0.07
2018-02-22T19:59:04.613Z,-0.22
2018-02-22T20:01:30.524Z,-0.25
2018-02-22T20:03:56.381Z,-0.44
2018-02-22T20:06:22.243Z,-0.60
2018-02-22T20:08:48.194Z,-0.64
2018-02-22T20:11:14.225Z,-0.66
2018-02-22T20:13:40.150Z,-0.70
2018-02-22T20:16:06.070Z,-0.67
2018-02-22T20:18:31.924Z,-0.60
2018-02-22T20:20:57.972Z,-0.59
2018-02-22T20:23:24.036Z,-0.53
2018-02-22T20:25:49.889Z,-0.49
2018-02-22T20:28:15.766Z,-0.43
2018-02-22T20:30:41.753Z,-0.37
2018-02-22T20:33:07.638Z,-0.36
2018-02-22T20:35:33.858Z,-0.36
2018-02-22T20:37:59.765Z,-0.36
2018-02-22T20:40:25.611Z,-0.29
2018-02-22T20:42:51.526Z,-0.20
2018-02-22T20:45:17.555Z,-0.10
2018-02-22T20:47:43.584Z,-0.09
2018-02-22T20:50:09.455Z,-0.05
2018-02-22T20:52:37.318Z,-0.07
2018-02-22T20:55:07.216Z,-0.07
2018-02-22T20:57:33.094Z,-0.01
2018-02-22T20:59:59.213Z,-0.01
2018-02-22T21:02:25.093Z,-0.02
2018-02-22T21:04:50.969Z,-0.02
2018-02-22T21:07:16.880Z,-0.05
2018-02-22T21:09:42.744Z,-0.04
2018-02-22T21:12:08.741Z,-0.06
2018-02-22T21:14:34.658Z,-0.08
2018-02-22T21:17:00.534Z,-0.05
2018-02-22T21:19:26.409Z,-0.04
2018-02-22T21:21:53.181Z,-0.07
2018-02-22T21:24:19.185Z,-0.10
2018-02-22T21:26:45.050Z,-0.05
2018-02-22T21:29:10.950Z,-0.09
2018-02-22T21:31:36.814Z,-0.15
2018-02-22T21:34:02.664Z,-0.10
2018-02-22T21:36:28.714Z,-0.11
2018-02-22T21:38:54.583Z,-0.14
2018-02-22T21:41:20.441Z,-0.10
2018-02-22T21:43:46.351Z,-0.06
2018-02-22T21:46:12.218Z,-0.04
2018-02-22T21:48:38.276Z,-0.17
2018-02-22T21:51:04.190Z,-0.18
2018-02-22T21:53:30.075Z,-0.16
2018-02-22T21:55:55.931Z,-0.16
2018-02-22T21:58:21.848Z,-0.16
2018-02-22T22:00:47.840Z,-0.22
2018-02-22T22:03:13.728Z,-0.21
2018-02-22T22:05:39.658Z,-0.16
2018-02-22T22:08:05.526Z,-0.16
2018-02-22T22:10:31.394Z,-0.16
2018-02-22T22:12:57.452Z,-0.17
2018-02-22T22:15:23.379Z,-0.22
2018-02-22T22:17:49.227Z,-0.17
2018-02-22T22:20:15.124Z,-0.14
2018-02-22T22:22:40.985Z,-0.15
2018-02-22T22:25:07.027Z,-0.13
2018-02-22T22:27:32.917Z,-0.18
2018-02-22T22:29:58.767Z,-0.17
2018-02-22T22:32:25.608Z,-0.14
2018-02-22T22:34:51.524Z,-0.26
2018-02-22T22:37:17.524Z,-0.26
2018-02-22T22:39:43.384Z,-0.28
2018-02-22T22:42:09.624Z,-0.24
2018-02-22T22:44:35.493Z,-0.21
2018-02-22T22:47:01.343Z,-0.19
2018-02-22T22:49:27.392Z,-0.27
2018-02-22T22:51:53.277Z,-0.27
2018-02-22T22:54:19.148Z,-0.22
2018-02-22T22:56:45.052Z,-0.18
2018-02-22T22:59:10.910Z,-0.30
2018-02-22T23:01:37.740Z,-0.28
2018-02-22T23:04:03.637Z,-0.33
2018-02-22T23:06:29.548Z,-0.34
2018-02-22T23:08:55.410Z,-0.39
2018-02-22T23:11:21.642Z,-0.29
2018-02-22T23:13:47.656Z,-0.38
2018-02-22T23:16:13.548Z,-0.40
2018-02-22T23:18:39.463Z,-0.40
2018-02-22T23:21:05.304Z,-0.44
2018-02-22T23:23:31.221Z,-0.49
2018-02-22T23:25:57.299Z,-0.51
2018-02-22T23:28:23.167Z,-0.58
2018-02-22T23:30:49.493Z,-0.63
2018-02-22T23:33:16.052Z,-0.66
2018-02-22T23:35:42.422Z,-0.80
2018-02-22T23:38:09.013Z,-0.77
2018-02-22T23:40:50.417Z,-0.93
2018-02-22T23:43:16.639Z,-0.99
2018-02-22T23:45:42.912Z,-1.06
2018-02-22T23:48:09.413Z,-1.18
2018-02-22T23:50:35.865Z,-1.28
2018-02-22T23:53:02.289Z,-1.32
2018-02-22T23:55:28.396Z,-1.50
2018-02-22T23:57:54.332Z,-1.58
